Lincoln, IL (62656)

10:40 PM CDT on September 28, 2016 (GMT -0500)
East Lincoln | | Change Station

Elev 610 ft 40.14 °N, 89.35 °W | Updated 4 seconds ago

Mostly Cloudy
Mostly Cloudy
58.8 °F
Feels Like 58.8 °F
N
1.1
Wind Variable Wind from West
Gusts 2.5 mph

Today
High -- | Low -- °F
--% Chance of Precip.
Yesterday
High -- | Low -- °F
Precip. -- in
Pressure 30.10 in
Visibility 10.0 miles
Clouds Mostly Cloudy 9000 ft
Dew Point 55 °F
Humidity 87%
Rainfall 0.00 in
Snow Depth Not available.
6:51 AM 6:43 PM
Waning Crescent, 3% visible
METAR KAAA 290335Z AUTO 34004KT 10SM BKN090 14/11 A3010 RMK AO2 T01380105
Pressure 30.10 in
Visibility 10.0 miles
Clouds Mostly Cloudy 9000 ft
Dew Point 55 °F
Humidity 87%
Rainfall 0.00 in
Snow Depth Not available.
6:51 AM 6:43 PM
Waning Crescent, 3% visible
METAR KAAA 290335Z AUTO 34004KT 10SM BKN090 14/11 A3010 RMK AO2 T01380105

10-Day Weather Forecast

Almanac

Astronomy

Sep. 28, 2016 Rise Set
Actual Time
Civil Twilight
Nautical Twilight
Astronomical Twilight
Moon
Length of Visible Light
Length of Day
Tomorrow will be .
, % of the Moon is Illuminated

Today's Extremes

State Highs State Lows

Community

WunderPhotos

Upload Photos

1,942,416 photos uploaded!

WunderBlog® & News

Nearby

Air Quality

  Air Quality AQ Index Pollutant
Not available.

Snow Depth

Station Depth Elevation

Earthquake Activity

City Distance Mag. Time & Date
Minimum magnitude displayed is 2.5.

Coastal Water Temperatures

Place Temperature

Stations

Nearby Weather Stations

Station Location Temp. Windchill Dew Point Humidity Wind Precip. Elev Updated Type
                   

Watches & Warnings

There are currently no watches in effect.